Time;durP1;ratioP1;P1;durP2;ratioP2;P2;SDS_P1;SDS_P2;PMS_P1;PMS_P2;Temp;Humidity;BMP_temperature;BMP_pressure;BME280_temperature;BME280_humidity;BME280_pressure;Samples;Min_cycle;Max_cycle;Signal;HPM_P1;HPM_P2
2022/03/17 00:01:38;;;;;;;32.90;22.40;;;10.80;95.70;;;;;;5012708;28;20462;-40
2022/03/17 00:04:05;;;;;;;33.53;21.63;;;10.80;95.70;;;;;;5011795;28;20052;-39
2022/03/17 00:06:34;;;;;;;35.50;21.73;;;10.80;95.80;;;;;;5014514;28;20128;-39
2022/03/17 00:09:00;;;;;;;32.20;22.17;;;10.80;95.90;;;;;;5014225;28;20397;-40
2022/03/17 00:11:29;;;;;;;33.80;22.20;;;10.80;96.00;;;;;;5012513;28;20136;-40
2022/03/17 00:13:55;;;;;;;36.08;22.90;;;10.80;96.10;;;;;;5013669;28;20088;-39
2022/03/17 00:16:22;;;;;;;36.22;22.67;;;10.70;96.10;;;;;;5010241;28;20049;-39
2022/03/17 00:18:50;;;;;;;35.45;22.17;;;10.80;96.20;;;;;;5005507;28;20046;-40
2022/03/17 00:21:16;;;;;;;34.25;22.50;;;10.80;96.30;;;;;;5012873;28;20058;-41
2022/03/17 00:23:44;;;;;;;34.22;22.25;;;10.80;96.30;;;;;;5013243;28;20038;-39
2022/03/17 00:26:11;;;;;;;35.00;22.17;;;10.70;96.40;;;;;;5013029;28;20045;-41
2022/03/17 00:28:39;;;;;;;33.42;23.13;;;10.80;96.50;;;;;;5004590;28;20053;-39
2022/03/17 00:31:05;;;;;;;36.22;22.65;;;10.80;96.50;;;;;;5011662;28;20045;-40
2022/03/17 00:33:32;;;;;;;38.72;24.15;;;10.70;96.60;;;;;;5013603;28;20052;-39
2022/03/17 00:35:59;;;;;;;36.55;23.52;;;10.70;96.70;;;;;;5012636;28;20056;-39
2022/03/17 00:38:26;;;;;;;34.90;22.95;;;10.70;96.80;;;;;;5013596;28;20050;-39
2022/03/17 00:40:54;;;;;;;32.30;22.88;;;10.70;96.90;;;;;;5011541;28;20052;-39
2022/03/17 00:43:22;;;;;;;35.08;22.98;;;10.70;97.00;;;;;;5012790;28;20448;-40
2022/03/17 00:45:49;;;;;;;33.00;22.02;;;10.70;97.00;;;;;;5012082;28;20049;-39
2022/03/17 00:48:16;;;;;;;39.22;24.58;;;10.60;97.10;;;;;;5011848;28;20053;-39
2022/03/17 00:50:43;;;;;;;34.03;22.98;;;10.70;97.20;;;;;;5005613;28;20490;-40
2022/03/17 00:53:09;;;;;;;37.42;24.55;;;10.70;97.30;;;;;;5010836;28;20758;-39
2022/03/17 00:55:36;;;;;;;35.60;23.83;;;10.60;97.30;;;;;;5013101;28;20478;-40
2022/03/17 00:58:04;;;;;;;38.70;23.67;;;10.60;97.40;;;;;;5013236;28;20117;-40
2022/03/17 01:00:31;;;;;;;33.67;23.50;;;10.60;97.50;;;;;;5011465;28;20053;-39
2022/03/17 01:02:58;;;;;;;34.67;23.13;;;10.50;97.50;;;;;;5013549;28;20439;-39
2022/03/17 01:05:25;;;;;;;38.65;24.38;;;10.60;97.60;;;;;;5012114;28;20073;-40
2022/03/17 01:07:52;;;;;;;37.38;23.63;;;10.60;97.70;;;;;;5027116;28;20069;-40
2022/03/17 01:10:19;;;;;;;35.22;23.15;;;10.60;97.70;;;;;;5010741;28;20045;-40
2022/03/17 01:12:46;;;;;;;40.67;24.25;;;10.60;97.80;;;;;;5011899;28;20128;-40
2022/03/17 01:15:15;;;;;;;36.92;24.38;;;10.60;97.90;;;;;;5005982;28;20044;-39
2022/03/17 01:17:42;;;;;;;39.85;25.55;;;10.60;98.00;;;;;;5012800;28;20048;-39
2022/03/17 01:20:09;;;;;;;37.70;24.30;;;10.60;98.00;;;;;;5011366;28;20484;-39
2022/03/17 01:22:36;;;;;;;34.30;24.02;;;10.50;98.00;;;;;;5009128;28;20389;-40
2022/03/17 01:25:03;;;;;;;33.38;23.52;;;10.60;98.30;;;;;;5009492;28;20042;-40
2022/03/17 01:27:30;;;;;;;37.50;25.27;;;10.60;98.00;;;;;;5011983;28;20553;-39
2022/03/17 01:29:57;;;;;;;37.42;25.67;;;10.60;98.00;;;;;;5011941;28;20050;-39
2022/03/17 01:32:25;;;;;;;34.95;22.67;;;10.60;98.00;;;;;;5011859;28;20107;-40
2022/03/17 01:34:52;;;;;;;38.47;24.63;;;10.60;98.00;;;;;;5005736;28;20042;-40
2022/03/17 01:37:19;;;;;;;35.45;24.05;;;10.60;98.00;;;;;;5011974;28;20413;-39
2022/03/17 01:39:45;;;;;;;39.42;24.20;;;10.60;98.00;;;;;;5010543;28;20046;-39
2022/03/17 01:42:12;;;;;;;37.30;24.85;;;10.60;98.00;;;;;;5012079;28;20053;-39
2022/03/17 01:44:39;;;;;;;38.95;24.58;;;10.70;98.00;;;;;;5011020;28;20389;-39
2022/03/17 01:49:52;;;;;;;37.95;25.95;;;10.70;98.00;;;;;;5010410;28;20124;-39
2022/03/17 01:52:18;;;;;;;35.22;24.60;;;10.70;98.00;;;;;;5010461;28;20133;-39
2022/03/17 01:54:45;;;;;;;37.25;24.17;;;10.70;98.00;;;;;;5011131;28;20045;-39
2022/03/17 01:57:12;;;;;;;37.30;24.90;;;10.70;98.10;;;;;;5011346;28;20468;-40
2022/03/17 01:59:40;;;;;;;36.70;24.25;;;10.70;98.30;;;;;;5011626;28;20667;-39
2022/03/17 02:02:07;;;;;;;39.53;26.27;;;10.70;98.60;;;;;;5005600;28;20632;-39
2022/03/17 02:04:35;;;;;;;38.15;24.67;;;10.70;99.00;;;;;;5011539;28;20156;-40
2022/03/17 02:07:05;;;;;;;39.22;25.95;;;10.70;99.40;;;;;;5009208;28;20121;-40
2022/03/17 02:09:32;;;;;;;37.05;25.83;;;10.70;99.80;;;;;;5010253;28;20045;-40
2022/03/17 02:14:50;;;;;;;39.97;26.27;;;10.60;99.90;;;;;;5010316;28;20046;-39
2022/03/17 02:17:17;;;;;;;37.20;26.10;;;10.60;99.90;;;;;;5011654;28;20048;-39
2022/03/17 02:19:43;;;;;;;35.83;25.30;;;10.60;99.90;;;;;;5011306;28;20080;-39
2022/03/17 02:22:13;;;;;;;34.47;24.92;;;10.60;99.90;;;;;;5010434;28;20129;-39
2022/03/17 02:27:26;;;;;;;37.35;25.45;;;10.50;99.90;;;;;;5004780;28;20041;-39
2022/03/17 02:29:53;;;;;;;35.83;25.15;;;10.50;99.90;;;;;;5010462;28;20052;-39
2022/03/17 02:32:20;;;;;;;39.33;25.85;;;10.50;99.90;;;;;;5010021;28;20129;-39
2022/03/17 02:34:47;;;;;;;35.17;26.15;;;10.50;99.90;;;;;;5009204;28;20067;-40
2022/03/17 02:37:14;;;;;;;39.33;26.75;;;10.50;99.90;;;;;;5012244;28;20140;-39
2022/03/17 02:39:43;;;;;;;37.88;26.75;;;10.50;99.90;;;;;;5012010;28;20050;-39
2022/03/17 02:42:10;;;;;;;41.05;27.65;;;10.50;99.90;;;;;;5012125;28;20446;-39
2022/03/17 02:44:37;;;;;;;38.70;26.38;;;10.50;99.90;;;;;;5011793;28;20038;-39
2022/03/17 02:47:04;;;;;;;39.42;27.67;;;10.50;99.90;;;;;;5007622;28;20128;-39
2022/03/17 02:49:31;;;;;;;34.13;25.98;;;10.40;99.90;;;;;;5011146;28;20126;-39
2022/03/17 02:51:57;;;;;;;38.38;26.77;;;10.50;99.90;;;;;;5010712;28;20052;-39
2022/03/17 02:54:24;;;;;;;37.47;26.55;;;10.50;99.90;;;;;;5010636;28;20056;-39
2022/03/17 02:56:52;;;;;;;37.67;26.33;;;10.40;99.90;;;;;;5010020;28;20045;-39
2022/03/17 02:59:19;;;;;;;36.58;25.45;;;10.50;99.90;;;;;;5009757;28;20508;-39
2022/03/17 03:01:46;;;;;;;39.40;26.95;;;10.50;99.90;;;;;;5008530;28;20045;-39
2022/03/17 03:04:16;;;;;;;40.70;27.98;;;10.50;99.90;;;;;;5005632;28;20053;-39
2022/03/17 03:06:43;;;;;;;38.78;27.83;;;10.50;99.90;;;;;;5008101;28;20048;-39
2022/03/17 03:09:10;;;;;;;38.47;26.33;;;10.50;99.90;;;;;;5014585;28;20077;-39
2022/03/17 03:11:37;;;;;;;39.17;27.60;;;10.50;99.90;;;;;;5014896;28;20042;-39
2022/03/17 03:14:07;;;;;;;40.10;28.30;;;10.50;99.90;;;;;;5015405;28;20041;-40
2022/03/17 03:16:34;;;;;;;38.08;26.67;;;10.50;99.90;;;;;;5013061;28;21228;-39
2022/03/17 03:19:00;;;;;;;37.05;27.00;;;10.50;99.90;;;;;;5014932;28;20518;-40
2022/03/17 03:21:28;;;;;;;39.65;28.65;;;10.50;99.90;;;;;;5014121;28;20064;-40
2022/03/17 03:23:55;;;;;;;37.20;27.10;;;10.60;99.90;;;;;;5013952;28;20042;-40
2022/03/17 03:26:22;;;;;;;41.10;29.45;;;10.60;99.90;;;;;;5014641;28;20050;-40
2022/03/17 03:28:48;;;;;;;39.05;28.55;;;10.60;99.90;;;;;;5012945;28;20052;-39
2022/03/17 03:31:16;;;;;;;39.85;27.67;;;10.60;99.90;;;;;;5013980;28;20057;-39
2022/03/17 03:33:43;;;;;;;38.33;26.65;;;10.60;99.90;;;;;;5012109;28;20068;-39
2022/03/17 03:38:54;;;;;;;38.33;29.05;;;10.60;99.90;;;;;;5008277;28;20498;-39
2022/03/17 03:41:21;;;;;;;39.58;27.20;;;10.60;99.90;;;;;;5014997;28;20038;-40
2022/03/17 03:43:48;;;;;;;40.30;29.33;;;10.60;99.90;;;;;;5006280;28;20044;-39
2022/03/17 03:46:15;;;;;;;39.70;29.48;;;10.80;99.90;;;;;;5013856;28;20052;-39
2022/03/17 03:48:43;;;;;;;39.85;29.40;;;10.70;99.90;;;;;;5013494;28;20116;-40
2022/03/17 03:51:09;;;;;;;40.72;29.13;;;10.70;99.90;;;;;;5013364;28;20393;-39
2022/03/17 03:56:17;;;;;;;42.72;29.50;;;10.70;99.90;;;;;;5003948;28;20459;-40
2022/03/17 03:58:43;;;;;;;41.10;29.25;;;10.70;99.90;;;;;;5013774;28;20042;-39
2022/03/17 04:01:10;;;;;;;39.67;29.15;;;10.70;99.90;;;;;;5012678;28;20133;-39
2022/03/17 04:03:37;;;;;;;42.47;30.08;;;10.70;99.90;;;;;;5013531;28;20485;-39
2022/03/17 04:06:05;;;;;;;42.65;31.20;;;10.70;99.90;;;;;;5011419;28;20069;-39
2022/03/17 04:08:32;;;;;;;43.55;30.98;;;10.80;99.90;;;;;;5013608;28;20359;-40
2022/03/17 04:11:00;;;;;;;44.10;30.65;;;10.70;99.90;;;;;;5013882;28;20125;-41
2022/03/17 04:13:26;;;;;;;42.47;32.00;;;10.80;99.90;;;;;;5014614;28;20046;-40
2022/03/17 04:15:53;;;;;;;47.75;32.78;;;10.80;99.90;;;;;;5012008;28;20542;-40
2022/03/17 04:18:20;;;;;;;46.55;32.92;;;10.80;99.90;;;;;;5013333;28;20137;-40
2022/03/17 04:20:47;;;;;;;47.50;34.55;;;10.70;99.90;;;;;;5013064;28;20052;-40
2022/03/17 04:23:15;;;;;;;48.88;34.75;;;10.70;99.90;;;;;;5012904;28;20070;-40
2022/03/17 04:25:42;;;;;;;50.97;36.65;;;10.70;99.90;;;;;;5013394;28;20081;-39
2022/03/17 04:28:08;;;;;;;54.55;35.80;;;10.60;99.90;;;;;;5014305;28;20478;-38
2022/03/17 04:30:36;;;;;;;56.55;36.78;;;10.60;99.90;;;;;;5012611;28;20128;-38
2022/03/17 04:33:02;;;;;;;58.25;38.08;;;10.60;99.90;;;;;;5012953;28;20069;-38
2022/03/17 04:35:29;;;;;;;58.40;38.08;;;10.60;99.90;;;;;;5013096;28;20068;-38
2022/03/17 04:37:56;;;;;;;59.15;39.60;;;10.50;99.90;;;;;;5007949;28;20050;-38
2022/03/17 04:40:24;;;;;;;63.22;40.28;;;10.50;99.90;;;;;;5009386;28;20057;-41
2022/03/17 04:42:50;;;;;;;60.70;41.00;;;10.50;99.90;;;;;;5012261;28;20121;-43
2022/03/17 04:45:17;;;;;;;64.78;41.67;;;10.50;99.90;;;;;;5007548;28;20049;-43
2022/03/17 04:47:45;;;;;;;58.00;41.33;;;10.40;99.90;;;;;;5011863;28;20045;-44
2022/03/17 04:50:11;;;;;;;64.43;42.60;;;10.40;99.90;;;;;;5011938;28;20093;-43
2022/03/17 04:55:24;;;;;;;67.57;43.47;;;10.30;99.90;;;;;;5013235;28;20049;-44
2022/03/17 04:57:51;;;;;;;68.03;44.58;;;10.30;99.90;;;;;;5012083;28;20062;-45
2022/03/17 05:00:18;;;;;;;66.82;42.03;;;10.30;99.90;;;;;;5012474;28;20060;-40
2022/03/17 05:02:45;;;;;;;66.63;42.75;;;10.30;99.90;;;;;;5011884;28;20049;-40
2022/03/17 05:05:11;;;;;;;59.97;39.08;;;10.30;99.90;;;;;;5009557;28;20042;-39
2022/03/17 05:07:38;;;;;;;51.88;34.47;;;10.30;99.90;;;;;;5008887;28;20565;-39
2022/03/17 05:10:06;;;;;;;44.95;29.70;;;10.30;99.90;;;;;;5008605;28;20524;-43
2022/03/17 05:12:34;;;;;;;33.53;21.52;;;10.30;99.90;;;;;;5009390;28;20056;-42
2022/03/17 05:15:01;;;;;;;25.58;16.67;;;10.20;99.90;;;;;;5008406;28;20057;-40
2022/03/17 05:17:30;;;;;;;14.40;10.52;;;10.20;99.90;;;;;;5005733;28;20042;-40
2022/03/17 05:19:57;;;;;;;11.57;8.70;;;10.00;99.90;;;;;;5005735;28;20069;-40
2022/03/17 05:22:23;;;;;;;11.30;8.73;;;9.90;99.90;;;;;;5005630;28;20056;-40
2022/03/17 05:24:51;;;;;;;9.10;7.45;;;9.80;99.90;;;;;;5008692;28;20393;-39
2022/03/17 05:27:18;;;;;;;9.93;7.50;;;9.70;99.90;;;;;;5011582;28;20085;-39
2022/03/17 05:29:46;;;;;;;9.07;7.22;;;9.60;99.90;;;;;;5009420;28;20042;-39
2022/03/17 05:32:12;;;;;;;10.65;7.18;;;9.60;99.90;;;;;;5010410;28;20052;-40
2022/03/17 05:34:39;;;;;;;8.45;7.05;;;9.40;99.90;;;;;;5009704;28;20045;-39
2022/03/17 05:37:06;;;;;;;9.35;8.05;;;9.30;99.90;;;;;;5007856;28;20049;-40
2022/03/17 05:39:33;;;;;;;11.63;8.27;;;9.20;99.90;;;;;;5008398;28;20054;-38
2022/03/17 05:42:00;;;;;;;12.85;8.95;;;9.20;99.90;;;;;;5006239;28;20050;-39
2022/03/17 05:44:27;;;;;;;12.73;9.30;;;9.10;99.90;;;;;;5009373;28;20065;-39
2022/03/17 05:46:55;;;;;;;16.75;8.98;;;9.00;99.90;;;;;;5011338;28;20132;-38
2022/03/17 05:49:21;;;;;;;14.23;9.50;;;9.00;99.90;;;;;;5011886;28;20042;-37
2022/03/17 05:51:48;;;;;;;15.38;9.90;;;8.90;99.90;;;;;;5011134;28;20474;-38
2022/03/17 05:54:15;;;;;;;18.52;10.27;;;8.80;99.90;;;;;;5012656;28;20045;-38
2022/03/17 05:56:41;;;;;;;19.65;9.77;;;8.80;99.90;;;;;;5008881;28;20052;-37
2022/03/17 05:59:08;;;;;;;19.10;9.52;;;8.80;99.90;;;;;;5011556;28;20129;-37
2022/03/17 06:01:35;;;;;;;17.73;10.18;;;8.80;99.90;;;;;;5010149;28;20041;-38
2022/03/17 06:04:03;;;;;;;21.88;10.48;;;8.80;99.90;;;;;;5010332;28;20048;-37
2022/03/17 06:06:30;;;;;;;22.25;10.23;;;8.70;99.90;;;;;;5011080;28;20053;-37
2022/03/17 06:08:56;;;;;;;20.95;9.88;;;8.70;99.90;;;;;;5010806;28;20390;-39
2022/03/17 06:11:23;;;;;;;16.92;9.57;;;8.70;99.90;;;;;;5009881;28;20041;-38
2022/03/17 06:13:50;;;;;;;17.48;8.60;;;8.70;99.90;;;;;;5010243;28;20068;-38
2022/03/17 06:16:16;;;;;;;19.85;9.75;;;8.70;99.90;;;;;;5011086;28;20044;-38
2022/03/17 06:18:43;;;;;;;20.08;9.38;;;8.60;99.90;;;;;;5010544;28;20084;-39
2022/03/17 06:21:11;;;;;;;19.15;8.98;;;8.60;99.90;;;;;;5011743;28;20136;-38
2022/03/17 06:23:38;;;;;;;22.92;9.73;;;8.60;99.90;;;;;;5003800;28;20042;-39
2022/03/17 06:26:05;;;;;;;20.98;9.52;;;8.60;99.90;;;;;;5007833;28;20077;-39
2022/03/17 06:28:31;;;;;;;20.63;9.23;;;8.60;99.90;;;;;;5006622;28;20125;-38
2022/03/17 06:30:58;;;;;;;18.83;7.75;;;8.60;99.90;;;;;;5007975;28;20037;-38
2022/03/17 06:33:25;;;;;;;19.88;7.75;;;8.60;99.90;;;;;;5006951;28;20053;-38
2022/03/17 06:35:52;;;;;;;15.77;8.00;;;8.60;99.90;;;;;;5001173;28;20109;-39
2022/03/17 06:38:20;;;;;;;21.73;7.28;;;8.60;99.90;;;;;;5011921;28;20452;-38
2022/03/17 06:40:47;;;;;;;21.52;6.82;;;8.60;99.90;;;;;;5015540;28;20080;-38
2022/03/17 06:43:14;;;;;;;18.92;7.20;;;8.60;99.90;;;;;;5015372;28;20381;-38
2022/03/17 06:45:41;;;;;;;14.80;6.43;;;8.60;99.90;;;;;;5014819;28;20042;-38
2022/03/17 06:48:08;;;;;;;22.15;6.78;;;8.60;99.90;;;;;;5013659;28;20122;-38
2022/03/17 06:50:34;;;;;;;22.90;7.07;;;8.50;99.90;;;;;;5014994;28;20053;-38
2022/03/17 06:53:01;;;;;;;23.30;7.05;;;8.50;99.90;;;;;;5015006;28;20505;-38
2022/03/17 06:55:31;;;;;;;18.42;5.68;;;8.50;99.90;;;;;;5013940;28;20133;-38
2022/03/17 06:57:58;;;;;;;23.95;6.22;;;8.50;99.90;;;;;;5014666;28;20133;-38
2022/03/17 07:00:24;;;;;;;20.67;5.75;;;8.50;99.90;;;;;;5006977;28;20042;-38
2022/03/17 07:02:51;;;;;;;21.38;4.45;;;8.50;99.90;;;;;;5014394;28;20046;-39
2022/03/17 07:05:18;;;;;;;14.80;3.47;;;8.50;99.90;;;;;;5007987;28;20049;-38
2022/03/17 07:07:45;;;;;;;17.70;3.47;;;8.40;99.90;;;;;;5014707;28;20050;-38
2022/03/17 07:10:12;;;;;;;18.77;3.42;;;8.40;99.90;;;;;;5013782;28;20064;-39
2022/03/17 07:12:41;;;;;;;16.45;3.00;;;8.40;99.90;;;;;;5014359;28;20058;-38
2022/03/17 07:15:09;;;;;;;16.73;2.80;;;8.30;99.90;;;;;;5014465;28;20038;-38
2022/03/17 07:17:39;;;;;;;11.43;2.63;;;8.40;99.90;;;;;;5014126;28;20042;-38
2022/03/17 07:20:07;;;;;;;12.68;2.97;;;8.40;99.90;;;;;;5014722;28;20053;-38
2022/03/17 07:22:34;;;;;;;17.20;3.63;;;8.40;99.90;;;;;;5014799;28;20050;-38
2022/03/17 07:25:01;;;;;;;12.38;2.67;;;8.40;99.90;;;;;;5014324;28;20124;-38
2022/03/17 07:27:29;;;;;;;12.50;2.63;;;8.40;99.90;;;;;;5013958;28;20042;-38
2022/03/17 07:29:57;;;;;;;16.92;2.97;;;8.40;99.90;;;;;;5013357;28;20121;-38
2022/03/17 07:32:24;;;;;;;12.30;2.83;;;8.40;99.90;;;;;;5010942;28;20116;-38
2022/03/17 07:34:51;;;;;;;16.55;2.50;;;8.40;99.90;;;;;;5012757;28;20137;-39
2022/03/17 07:37:18;;;;;;;14.07;2.80;;;8.40;99.90;;;;;;5012713;28;20504;-38
2022/03/17 07:39:44;;;;;;;16.00;2.60;;;8.30;99.90;;;;;;5010953;28;20046;-38
2022/03/17 07:42:11;;;;;;;10.15;2.40;;;8.30;99.90;;;;;;5014748;28;20081;-39
2022/03/17 07:44:38;;;;;;;11.27;2.40;;;8.30;99.90;;;;;;5013457;28;20080;-39
2022/03/17 07:47:07;;;;;;;15.10;2.75;;;8.30;99.90;;;;;;5014053;28;20042;-39
2022/03/17 07:49:35;;;;;;;20.25;2.72;;;8.30;99.90;;;;;;5013219;28;20049;-38
2022/03/17 07:52:02;;;;;;;13.48;2.10;;;8.30;99.90;;;;;;5013228;28;20042;-38
2022/03/17 07:54:28;;;;;;;10.32;1.63;;;8.40;99.90;;;;;;5013582;28;20085;-39
2022/03/17 07:56:55;;;;;;;12.30;2.72;;;8.40;99.90;;;;;;5013605;28;20561;-38
2022/03/17 07:59:23;;;;;;;12.70;1.90;;;8.40;99.90;;;;;;5014154;28;20042;-38
2022/03/17 08:01:50;;;;;;;12.70;2.00;;;8.30;99.90;;;;;;5012595;28;20100;-38
2022/03/17 08:04:18;;;;;;;18.55;2.30;;;8.30;99.90;;;;;;5012820;28;20044;-38
2022/03/17 08:06:45;;;;;;;15.45;2.70;;;8.30;99.90;;;;;;5013403;28;20062;-38
2022/03/17 08:09:12;;;;;;;16.48;2.25;;;8.30;99.90;;;;;;5013305;28;20049;-38
2022/03/17 08:11:38;;;;;;;19.85;2.35;;;8.30;99.90;;;;;;5012049;28;20129;-38
2022/03/17 08:14:05;;;;;;;17.88;2.35;;;8.20;99.90;;;;;;5013686;28;20212;-39
2022/03/17 08:16:32;;;;;;;16.13;3.03;;;8.20;99.90;;;;;;5013565;28;20147;-39
2022/03/17 08:18:58;;;;;;;8.02;2.03;;;8.20;99.90;;;;;;5012849;28;20493;-38
2022/03/17 08:21:27;;;;;;;21.70;2.63;;;8.20;99.90;;;;;;5007898;28;20125;-38
2022/03/17 08:23:53;;;;;;;18.52;2.40;;;8.20;99.90;;;;;;5012287;28;20049;-38
2022/03/17 08:26:20;;;;;;;17.48;2.33;;;8.20;99.90;;;;;;5013309;28;20054;-38
2022/03/17 08:28:47;;;;;;;15.50;2.45;;;8.20;99.90;;;;;;5012428;28;20135;-38
2022/03/17 08:31:14;;;;;;;17.27;2.30;;;8.10;99.90;;;;;;5013051;28;20126;-39
2022/03/17 08:33:41;;;;;;;23.70;3.00;;;8.10;99.90;;;;;;5005370;28;20054;-38
2022/03/17 08:36:07;;;;;;;19.75;2.95;;;8.10;99.90;;;;;;5012571;28;20156;-38
2022/03/17 08:38:35;;;;;;;22.55;2.75;;;8.10;99.90;;;;;;5013255;28;20092;-38
2022/03/17 08:41:02;;;;;;;17.30;2.42;;;8.10;99.90;;;;;;5013059;28;20056;-38
2022/03/17 08:43:29;;;;;;;20.10;2.85;;;8.20;99.90;;;;;;5012750;28;20469;-39
2022/03/17 08:51:26;;;;;;;15.18;2.20;;;8.20;99.90;;;;;;5011813;28;20051;-39
2022/03/17 08:53:56;;;;;;;26.52;3.78;;;8.20;99.90;;;;;;5012765;28;20045;-39
2022/03/17 08:56:23;;;;;;;18.88;2.80;;;8.20;99.90;;;;;;5013073;28;20394;-39
2022/03/17 08:58:49;;;;;;;17.45;2.95;;;8.10;99.90;;;;;;5011746;28;20045;-39
2022/03/17 09:01:16;;;;;;;24.05;2.65;;;8.10;99.90;;;;;;5010985;28;20125;-38
2022/03/17 09:03:43;;;;;;;15.68;2.17;;;8.10;99.90;;;;;;5011066;28;20061;-38
2022/03/17 09:06:12;;;;;;;22.23;3.15;;;8.10;99.90;;;;;;5012135;28;20030;-38
2022/03/17 09:08:41;;;;;;;12.85;2.10;;;8.10;99.90;;;;;;5012742;28;20045;-38
2022/03/17 09:11:09;;;;;;;22.58;2.45;;;8.20;99.90;;;;;;5010845;28;20141;-38
2022/03/17 09:13:36;;;;;;;20.05;2.58;;;8.20;99.90;;;;;;5011532;28;20045;-38
2022/03/17 09:16:05;;;;;;;21.00;3.60;;;8.30;99.90;;;;;;5011458;28;20410;-39
2022/03/17 09:18:31;;;;;;;22.63;2.83;;;8.40;99.90;;;;;;5010859;28;20056;-39
2022/03/17 09:20:59;;;;;;;23.17;2.83;;;8.40;99.90;;;;;;5011916;28;20125;-39
2022/03/17 09:23:26;;;;;;;19.63;2.47;;;8.50;99.90;;;;;;5004659;28;20367;-38
2022/03/17 09:25:53;;;;;;;18.48;3.17;;;8.50;99.90;;;;;;5011066;28;20037;-39
2022/03/17 09:28:22;;;;;;;23.00;3.25;;;8.60;99.90;;;;;;5012133;28;20049;-38
2022/03/17 09:30:50;;;;;;;17.65;2.88;;;8.60;99.90;;;;;;5011804;28;20520;-39
2022/03/17 09:33:17;;;;;;;16.17;2.75;;;8.60;99.90;;;;;;5023297;28;20045;-39
2022/03/17 09:35:44;;;;;;;17.65;2.60;;;8.50;99.90;;;;;;5011562;28;20042;-39
2022/03/17 09:38:11;;;;;;;15.65;2.10;;;8.60;99.90;;;;;;5011899;28;20405;-39
2022/03/17 09:40:38;;;;;;;21.42;2.55;;;8.50;99.90;;;;;;5010116;28;20041;-39
2022/03/17 09:43:21;;;;;;;18.42;2.53;;;8.60;99.90;;;;;;5010786;28;20046;-39
2022/03/17 09:45:51;;;;;;;14.40;2.38;;;8.60;99.90;;;;;;5012129;28;20121;-39
2022/03/17 09:48:18;;;;;;;14.15;2.17;;;8.60;99.90;;;;;;5011796;28;20046;-39
2022/03/17 09:50:46;;;;;;;20.17;2.42;;;8.60;99.90;;;;;;5010611;28;20045;-39
2022/03/17 09:53:13;;;;;;;15.70;2.28;;;8.60;99.90;;;;;;5011572;28;20067;-41
2022/03/17 09:55:43;;;;;;;20.90;3.13;;;8.60;99.90;;;;;;5011726;28;20040;-39
2022/03/17 09:58:10;;;;;;;16.75;2.75;;;8.70;99.90;;;;;;5011084;28;20037;-38
2022/03/17 10:00:49;;;;;;;15.40;3.28;;;8.70;99.90;;;;;;5006749;28;20529;-40
2022/03/17 10:03:17;;;;;;;17.83;2.97;;;8.70;99.90;;;;;;5010628;28;20104;-39
2022/03/17 10:05:45;;;;;;;15.23;2.70;;;8.80;99.90;;;;;;5007522;28;20038;-39
2022/03/17 10:08:12;;;;;;;26.48;2.95;;;8.80;99.90;;;;;;5011779;28;20409;-39
2022/03/17 10:10:39;;;;;;;18.95;2.97;;;8.90;99.90;;;;;;5009946;28;20142;-39
2022/03/17 10:13:07;;;;;;;19.17;2.67;;;9.00;99.90;;;;;;5010692;28;20491;-39
2022/03/17 10:15:34;;;;;;;16.65;2.97;;;9.20;99.90;;;;;;5011335;28;20099;-39
2022/03/17 10:18:01;;;;;;;19.98;2.70;;;9.40;99.90;;;;;;5010156;28;20378;-39
2022/03/17 10:20:31;;;;;;;14.05;2.17;;;9.70;99.90;;;;;;5011435;28;20046;-39
2022/03/17 10:22:58;;;;;;;13.75;1.88;;;10.00;99.90;;;;;;5010234;28;20373;-40
2022/03/17 10:25:26;;;;;;;12.60;2.30;;;10.30;99.90;;;;;;5010232;28;20057;-40
2022/03/17 10:27:54;;;;;;;15.63;2.40;;;10.60;99.90;;;;;;5010363;28;20140;-39
2022/03/17 10:30:24;;;;;;;16.23;2.10;;;10.60;99.90;;;;;;5010206;28;20049;-40
2022/03/17 10:32:55;;;;;;;15.70;1.80;;;10.70;99.90;;;;;;5010286;28;20042;-40
2022/03/17 10:35:25;;;;;;;12.98;2.58;;;10.80;99.90;;;;;;5009511;28;20083;-40
2022/03/17 10:37:54;;;;;;;9.13;1.98;;;11.00;99.90;;;;;;5007705;28;20397;-40
2022/03/17 10:40:20;;;;;;;12.45;2.30;;;11.20;99.90;;;;;;5007444;28;20046;-40
2022/03/17 10:42:47;;;;;;;17.58;3.08;;;11.40;99.90;;;;;;5002239;28;20060;-40
2022/03/17 10:45:14;;;;;;;19.10;2.85;;;11.50;99.40;;;;;;5005606;28;20046;-40
2022/03/17 10:47:42;;;;;;;13.85;2.67;;;11.60;99.20;;;;;;5009764;28;20050;-39
2022/03/17 10:50:10;;;;;;;11.18;1.90;;;11.60;98.40;;;;;;5010015;28;20045;-39
2022/03/17 10:52:51;;;;;;;13.98;3.40;;;11.60;97.20;;;;;;5009817;28;20042;-39
2022/03/17 10:55:24;;;;;;;12.18;2.33;;;11.60;95.70;;;;;;5002564;28;20060;-39
2022/03/17 10:57:51;;;;;;;15.05;2.08;;;11.50;96.60;;;;;;5003315;28;20038;-38
2022/03/17 11:00:22;;;;;;;18.23;2.60;;;11.40;96.50;;;;;;5010769;28;20049;-39
2022/03/17 11:02:50;;;;;;;13.30;2.40;;;11.40;97.00;;;;;;5011263;28;20462;-40
2022/03/17 11:05:18;;;;;;;16.45;2.10;;;11.50;96.90;;;;;;5011803;28;20670;-40
2022/03/17 11:07:45;;;;;;;13.38;2.05;;;11.60;96.50;;;;;;5011644;28;20135;-40
2022/03/17 11:10:15;;;;;;;15.10;2.67;;;11.60;95.70;;;;;;5003709;28;20232;-39
2022/03/17 11:12:43;;;;;;;13.95;2.60;;;11.60;95.70;;;;;;4991053;28;20057;-40
2022/03/17 11:15:10;;;;;;;16.80;2.83;;;11.70;94.90;;;;;;4997420;28;20481;-39
2022/03/17 11:17:38;;;;;;;15.98;3.33;;;11.80;94.70;;;;;;5010593;28;20038;-40
2022/03/17 11:20:07;;;;;;;15.25;2.45;;;12.00;94.10;;;;;;5009423;28;20104;-41
2022/03/17 11:22:34;;;;;;;20.52;2.42;;;12.10;94.20;;;;;;5008678;28;20044;-41
2022/03/17 11:25:20;;;;;;;12.48;2.80;;;12.20;93.10;;;;;;5003785;28;20048;-40
2022/03/17 11:27:49;;;;;;;14.98;3.17;;;12.30;92.70;;;;;;5014090;28;20496;-40
2022/03/17 11:30:16;;;;;;;9.95;2.28;;;12.40;92.60;;;;;;5011124;28;20045;-41
2022/03/17 11:32:54;;;;;;;15.02;2.00;;;12.50;92.70;;;;;;5012126;28;20104;-40
2022/03/17 11:35:21;;;;;;;12.15;1.80;;;12.70;91.60;;;;;;5005487;28;20470;-41
2022/03/17 11:37:48;;;;;;;9.15;1.70;;;12.70;90.80;;;;;;5011691;28;20057;-42
2022/03/17 11:40:16;;;;;;;8.02;1.98;;;12.60;90.30;;;;;;5012918;28;20060;-40
2022/03/17 11:42:43;;;;;;;11.73;2.08;;;12.70;90.20;;;;;;5013896;28;20073;-41
2022/03/17 11:45:41;;;;;;;11.60;2.20;;;12.70;90.20;;;;;;5012303;28;20053;-41
2022/03/17 11:48:12;;;;;;;11.98;2.88;;;12.90;89.50;;;;;;5011572;28;20049;-41
2022/03/17 11:50:44;;;;;;;16.52;2.38;;;12.80;89.00;;;;;;5013614;28;20080;-40
2022/03/17 11:53:20;;;;;;;23.02;3.13;;;12.70;88.60;;;;;;5011139;28;20050;-42
2022/03/17 11:55:52;;;;;;;17.42;2.78;;;12.60;88.60;;;;;;5014473;28;20111;-40
2022/03/17 11:58:28;;;;;;;14.82;2.60;;;12.60;88.20;;;;;;5014944;28;20133;-40
2022/03/17 12:01:03;;;;;;;13.07;2.30;;;12.50;89.10;;;;;;5014799;28;20281;-40
2022/03/17 12:03:30;;;;;;;14.57;2.42;;;12.50;87.70;;;;;;5013111;28;20521;-40
2022/03/17 12:06:11;;;;;;;12.68;2.17;;;12.60;87.20;;;;;;5010517;28;20446;-41
2022/03/17 12:08:38;;;;;;;13.47;2.47;;;12.70;85.60;;;;;;5013298;28;20069;-41
2022/03/17 12:11:13;;;;;;;16.92;2.72;;;12.70;85.80;;;;;;5014338;28;20838;-40
2022/03/17 12:13:40;;;;;;;9.45;1.90;;;12.90;84.90;;;;;;5012964;28;20065;-41
2022/03/17 12:16:08;;;;;;;10.27;2.00;;;13.00;85.30;;;;;;5009602;28;20132;-40
2022/03/17 12:19:03;;;;;;;9.50;2.28;;;13.10;85.30;;;;;;5014685;28;20137;-41
2022/03/17 12:22:07;;;;;;;9.07;2.03;;;13.20;80.20;;;;;;5013505;28;20133;-41
2022/03/17 12:24:38;;;;;;;18.35;2.30;;;13.10;81.50;;;;;;5009086;28;20052;-41
2022/03/17 12:27:05;;;;;;;12.43;2.55;;;13.20;83.90;;;;;;5011398;28;20046;-41
2022/03/17 12:29:32;;;;;;;14.70;3.00;;;13.30;84.40;;;;;;5030035;28;20050;-41
2022/03/17 12:32:05;;;;;;;10.20;2.00;;;13.30;83.70;;;;;;5012021;28;20084;-40
2022/03/17 12:34:33;;;;;;;17.58;2.15;;;13.40;81.20;;;;;;5012884;28;20046;-40
2022/03/17 12:37:00;;;;;;;12.68;2.28;;;13.40;80.30;;;;;;5012405;28;20054;-42
2022/03/17 12:39:28;;;;;;;11.38;2.45;;;13.40;80.30;;;;;;5014177;28;20052;-41
2022/03/17 12:41:55;;;;;;;12.45;2.15;;;13.40;80.90;;;;;;5012246;28;20086;-41
2022/03/17 12:44:22;;;;;;;10.10;2.00;;;13.40;80.70;;;;;;5013182;28;20129;-41
2022/03/17 12:46:49;;;;;;;12.77;2.17;;;13.30;80.40;;;;;;5012248;28;20040;-40
2022/03/17 12:49:18;;;;;;;11.70;2.15;;;13.30;79.30;;;;;;5009677;28;20064;-40
2022/03/17 12:51:45;;;;;;;16.73;2.47;;;13.30;79.10;;;;;;5013319;28;20073;-41
2022/03/17 12:54:13;;;;;;;16.10;2.47;;;13.40;79.00;;;;;;5011012;28;20056;-41
2022/03/17 12:56:48;;;;;;;11.38;2.00;;;13.60;77.80;;;;;;5013439;28;20117;-41
2022/03/17 12:59:14;;;;;;;9.85;1.75;;;13.70;76.70;;;;;;5012286;28;20145;-41
2022/03/17 13:01:41;;;;;;;11.60;2.30;;;13.70;77.10;;;;;;5012382;28;20073;-40
2022/03/17 13:04:08;;;;;;;11.82;2.40;;;13.70;76.00;;;;;;5012780;28;20121;-41